Mechanicsville, South Carolina
Current Conditions -  °F | °C
As of 11:15 PM on Sunday 25 Jan 2015 (Local Time) from KHVS Reporting Station
Broken Clouds Broken Clouds  
Wind Chill: 42°   Ceiling: 11000
Heat Index: 45°   Visibility: 10mi
Dew Point: 34°   Wind: 5mph
Humidity: 66%   Direction: 200°SSW
Pressure: 29.81"   Gusts: NA
Location:  34.2324°N, 80.2824°W
Report Text: KHVS 260415Z AUTO 20004KT 10SM BKN110 07/01 A2981 RMK AO2
Loading
Personal Weather Stations






























Interactive Weather Map New forecast layout! Learn more

10-Day Weather Forecast

Advertisements
Track Severe Weather on mobile